sensor_id;sensor_type;location;lat;lon;timestamp;P1;durP1;ratioP1;P2;durP2;ratioP2
63688;SDS011;54895;40.928;14.480;2023-05-29T00:01:41;12.90;;;7.30;;
63688;SDS011;54895;40.928;14.480;2023-05-29T00:04:07;9.45;;;7.15;;
63688;SDS011;54895;40.928;14.480;2023-05-29T00:06:34;8.18;;;6.75;;
63688;SDS011;54895;40.928;14.480;2023-05-29T00:09:02;11.52;;;7.63;;
63688;SDS011;54895;40.928;14.480;2023-05-29T00:11:29;11.00;;;6.68;;
63688;SDS011;54895;40.928;14.480;2023-05-29T00:13:56;10.82;;;7.57;;
63688;SDS011;54895;40.928;14.480;2023-05-29T00:16:23;10.82;;;7.07;;
63688;SDS011;54895;40.928;14.480;2023-05-29T00:18:50;12.15;;;8.25;;
63688;SDS011;54895;40.928;14.480;2023-05-29T00:21:18;10.80;;;7.22;;
63688;SDS011;54895;40.928;14.480;2023-05-29T00:23:44;10.00;;;6.97;;
63688;SDS011;54895;40.928;14.480;2023-05-29T00:26:11;12.50;;;7.57;;
63688;SDS011;54895;40.928;14.480;2023-05-29T00:32:25;10.70;;;7.80;;
63688;SDS011;54895;40.928;14.480;2023-05-29T00:34:53;11.35;;;7.28;;
63688;SDS011;54895;40.928;14.480;2023-05-29T00:37:20;14.90;;;7.35;;
63688;SDS011;54895;40.928;14.480;2023-05-29T00:39:48;12.65;;;7.43;;
63688;SDS011;54895;40.928;14.480;2023-05-29T00:42:15;10.50;;;7.13;;
63688;SDS011;54895;40.928;14.480;2023-05-29T00:44:41;11.20;;;7.70;;
63688;SDS011;54895;40.928;14.480;2023-05-29T00:47:07;10.60;;;7.95;;
63688;SDS011;54895;40.928;14.480;2023-05-29T00:49:34;11.25;;;8.02;;
63688;SDS011;54895;40.928;14.480;2023-05-29T00:52:02;11.13;;;7.63;;
63688;SDS011;54895;40.928;14.480;2023-05-29T00:54:30;16.52;;;8.32;;
63688;SDS011;54895;40.928;14.480;2023-05-29T00:56:57;10.60;;;8.02;;
63688;SDS011;54895;40.928;14.480;2023-05-29T00:59:26;12.23;;;7.75;;
63688;SDS011;54895;40.928;14.480;2023-05-29T01:01:55;10.45;;;7.40;;
63688;SDS011;54895;40.928;14.480;2023-05-29T01:04:22;9.38;;;7.18;;
63688;SDS011;54895;40.928;14.480;2023-05-29T01:06:49;12.18;;;8.05;;
63688;SDS011;54895;40.928;14.480;2023-05-29T01:09:16;13.55;;;7.10;;
63688;SDS011;54895;40.928;14.480;2023-05-29T01:11:45;10.52;;;7.35;;
63688;SDS011;54895;40.928;14.480;2023-05-29T01:17:33;11.55;;;7.47;;
63688;SDS011;54895;40.928;14.480;2023-05-29T01:32:39;10.10;;;7.32;;
63688;SDS011;54895;40.928;14.480;2023-05-29T01:35:06;10.30;;;6.97;;
63688;SDS011;54895;40.928;14.480;2023-05-29T01:37:34;10.68;;;6.70;;
63688;SDS011;54895;40.928;14.480;2023-05-29T01:40:01;10.30;;;7.18;;
63688;SDS011;54895;40.928;14.480;2023-05-29T01:42:28;8.57;;;6.93;;
63688;SDS011;54895;40.928;14.480;2023-05-29T01:44:55;10.35;;;7.57;;
63688;SDS011;54895;40.928;14.480;2023-05-29T01:47:24;9.40;;;7.00;;
63688;SDS011;54895;40.928;14.480;2023-05-29T01:49:51;11.52;;;7.50;;
63688;SDS011;54895;40.928;14.480;2023-05-29T01:52:18;8.68;;;6.68;;
63688;SDS011;54895;40.928;14.480;2023-05-29T01:54:45;12.73;;;7.18;;
63688;SDS011;54895;40.928;14.480;2023-05-29T01:57:11;9.90;;;6.93;;
63688;SDS011;54895;40.928;14.480;2023-05-29T01:59:38;10.75;;;7.47;;
63688;SDS011;54895;40.928;14.480;2023-05-29T02:02:06;10.75;;;7.15;;
63688;SDS011;54895;40.928;14.480;2023-05-29T02:04:33;9.55;;;6.65;;
63688;SDS011;54895;40.928;14.480;2023-05-29T02:07:00;9.20;;;6.60;;
63688;SDS011;54895;40.928;14.480;2023-05-29T02:09:27;10.20;;;7.70;;
63688;SDS011;54895;40.928;14.480;2023-05-29T02:11:54;12.73;;;7.03;;
63688;SDS011;54895;40.928;14.480;2023-05-29T02:14:21;10.52;;;7.97;;
63688;SDS011;54895;40.928;14.480;2023-05-29T02:16:51;11.27;;;7.80;;
63688;SDS011;54895;40.928;14.480;2023-05-29T02:19:18;10.32;;;7.88;;
63688;SDS011;54895;40.928;14.480;2023-05-29T02:21:46;9.85;;;7.40;;
63688;SDS011;54895;40.928;14.480;2023-05-29T02:24:14;12.65;;;8.25;;
63688;SDS011;54895;40.928;14.480;2023-05-29T02:26:41;10.52;;;8.20;;
63688;SDS011;54895;40.928;14.480;2023-05-29T02:32:39;12.05;;;8.10;;
63688;SDS011;54895;40.928;14.480;2023-05-29T02:35:06;11.88;;;8.30;;
63688;SDS011;54895;40.928;14.480;2023-05-29T02:37:34;11.10;;;7.25;;
63688;SDS011;54895;40.928;14.480;2023-05-29T02:40:01;9.77;;;7.85;;
63688;SDS011;54895;40.928;14.480;2023-05-29T02:42:27;11.50;;;7.88;;
63688;SDS011;54895;40.928;14.480;2023-05-29T02:44:53;11.52;;;7.57;;
63688;SDS011;54895;40.928;14.480;2023-05-29T02:47:20;12.40;;;8.15;;
63688;SDS011;54895;40.928;14.480;2023-05-29T02:49:47;11.55;;;8.00;;
63688;SDS011;54895;40.928;14.480;2023-05-29T02:52:13;11.27;;;7.95;;
63688;SDS011;54895;40.928;14.480;2023-05-29T02:54:39;13.55;;;9.20;;
63688;SDS011;54895;40.928;14.480;2023-05-29T02:57:06;11.48;;;9.00;;
63688;SDS011;54895;40.928;14.480;2023-05-29T02:59:32;12.45;;;8.30;;
63688;SDS011;54895;40.928;14.480;2023-05-29T03:01:58;13.30;;;8.98;;
63688;SDS011;54895;40.928;14.480;2023-05-29T03:04:25;14.73;;;9.38;;
63688;SDS011;54895;40.928;14.480;2023-05-29T03:06:53;14.65;;;9.00;;
63688;SDS011;54895;40.928;14.480;2023-05-29T03:09:20;13.35;;;8.98;;
63688;SDS011;54895;40.928;14.480;2023-05-29T03:11:46;11.68;;;8.30;;
63688;SDS011;54895;40.928;14.480;2023-05-29T03:14:18;12.57;;;9.07;;
63688;SDS011;54895;40.928;14.480;2023-05-29T03:16:47;11.15;;;8.55;;
63688;SDS011;54895;40.928;14.480;2023-05-29T03:19:15;16.63;;;9.05;;
63688;SDS011;54895;40.928;14.480;2023-05-29T03:21:41;11.18;;;8.25;;
63688;SDS011;54895;40.928;14.480;2023-05-29T03:24:08;10.57;;;7.95;;
63688;SDS011;54895;40.928;14.480;2023-05-29T03:26:36;10.60;;;8.38;;
63688;SDS011;54895;40.928;14.480;2023-05-29T03:32:55;19.45;;;9.60;;
63688;SDS011;54895;40.928;14.480;2023-05-29T03:35:34;12.55;;;9.15;;
63688;SDS011;54895;40.928;14.480;2023-05-29T03:38:01;17.42;;;9.48;;
63688;SDS011;54895;40.928;14.480;2023-05-29T03:40:28;17.75;;;9.40;;
63688;SDS011;54895;40.928;14.480;2023-05-29T03:42:55;18.33;;;9.88;;
63688;SDS011;54895;40.928;14.480;2023-05-29T03:45:21;17.92;;;9.25;;
63688;SDS011;54895;40.928;14.480;2023-05-29T03:47:48;17.27;;;9.30;;
63688;SDS011;54895;40.928;14.480;2023-05-29T03:50:15;14.20;;;8.15;;
63688;SDS011;54895;40.928;14.480;2023-05-29T03:52:43;12.98;;;6.65;;
63688;SDS011;54895;40.928;14.480;2023-05-29T03:55:10;12.15;;;7.47;;
63688;SDS011;54895;40.928;14.480;2023-05-29T03:57:41;12.50;;;7.03;;
63688;SDS011;54895;40.928;14.480;2023-05-29T04:00:09;12.85;;;7.15;;
63688;SDS011;54895;40.928;14.480;2023-05-29T04:02:39;13.57;;;7.07;;
63688;SDS011;54895;40.928;14.480;2023-05-29T04:05:07;12.85;;;6.90;;
63688;SDS011;54895;40.928;14.480;2023-05-29T04:07:35;10.73;;;7.45;;
63688;SDS011;54895;40.928;14.480;2023-05-29T04:10:05;13.70;;;7.18;;
63688;SDS011;54895;40.928;14.480;2023-05-29T04:12:34;11.60;;;6.85;;
63688;SDS011;54895;40.928;14.480;2023-05-29T04:15:01;11.38;;;7.15;;
63688;SDS011;54895;40.928;14.480;2023-05-29T04:17:28;12.10;;;7.18;;
63688;SDS011;54895;40.928;14.480;2023-05-29T04:19:55;16.35;;;7.63;;
63688;SDS011;54895;40.928;14.480;2023-05-29T04:22:22;18.20;;;7.53;;
63688;SDS011;54895;40.928;14.480;2023-05-29T04:24:49;17.33;;;7.60;;
63688;SDS011;54895;40.928;14.480;2023-05-29T04:27:16;11.68;;;7.10;;
63688;SDS011;54895;40.928;14.480;2023-05-29T04:32:38;17.70;;;7.70;;
63688;SDS011;54895;40.928;14.480;2023-05-29T04:35:06;13.23;;;7.10;;
63688;SDS011;54895;40.928;14.480;2023-05-29T04:37:39;11.73;;;7.10;;
63688;SDS011;54895;40.928;14.480;2023-05-29T04:40:07;11.10;;;7.20;;
63688;SDS011;54895;40.928;14.480;2023-05-29T04:42:36;13.07;;;8.18;;
63688;SDS011;54895;40.928;14.480;2023-05-29T04:45:03;14.55;;;8.07;;
63688;SDS011;54895;40.928;14.480;2023-05-29T04:47:34;12.25;;;7.78;;
63688;SDS011;54895;40.928;14.480;2023-05-29T04:50:02;12.60;;;8.05;;
63688;SDS011;54895;40.928;14.480;2023-05-29T04:52:29;12.77;;;7.45;;
63688;SDS011;54895;40.928;14.480;2023-05-29T04:54:56;13.13;;;7.75;;
63688;SDS011;54895;40.928;14.480;2023-05-29T04:57:23;13.80;;;8.38;;
63688;SDS011;54895;40.928;14.480;2023-05-29T04:59:49;12.38;;;8.80;;
63688;SDS011;54895;40.928;14.480;2023-05-29T05:02:16;14.00;;;8.45;;
63688;SDS011;54895;40.928;14.480;2023-05-29T05:04:43;11.63;;;8.80;;
63688;SDS011;54895;40.928;14.480;2023-05-29T05:07:11;16.10;;;9.20;;
63688;SDS011;54895;40.928;14.480;2023-05-29T05:09:38;15.70;;;10.30;;
63688;SDS011;54895;40.928;14.480;2023-05-29T05:12:06;14.43;;;9.25;;
63688;SDS011;54895;40.928;14.480;2023-05-29T05:14:36;18.38;;;10.20;;
63688;SDS011;54895;40.928;14.480;2023-05-29T05:17:03;15.68;;;10.40;;
63688;SDS011;54895;40.928;14.480;2023-05-29T05:19:30;13.63;;;10.05;;
63688;SDS011;54895;40.928;14.480;2023-05-29T05:21:57;14.85;;;10.40;;
63688;SDS011;54895;40.928;14.480;2023-05-29T05:24:24;17.38;;;9.75;;
63688;SDS011;54895;40.928;14.480;2023-05-29T05:26:51;14.00;;;9.30;;
63688;SDS011;54895;40.928;14.480;2023-05-29T05:29:18;18.58;;;9.82;;
63688;SDS011;54895;40.928;14.480;2023-05-29T05:31:45;15.98;;;9.20;;
63688;SDS011;54895;40.928;14.480;2023-05-29T05:34:12;16.88;;;9.10;;
63688;SDS011;54895;40.928;14.480;2023-05-29T05:36:40;15.43;;;9.07;;
63688;SDS011;54895;40.928;14.480;2023-05-29T05:39:11;13.90;;;9.10;;
63688;SDS011;54895;40.928;14.480;2023-05-29T05:41:38;13.20;;;8.77;;
63688;SDS011;54895;40.928;14.480;2023-05-29T05:44:05;14.63;;;9.23;;
63688;SDS011;54895;40.928;14.480;2023-05-29T05:46:58;11.77;;;8.75;;
63688;SDS011;54895;40.928;14.480;2023-05-29T05:49:25;13.75;;;8.43;;
63688;SDS011;54895;40.928;14.480;2023-05-29T05:51:51;16.05;;;8.63;;
63688;SDS011;54895;40.928;14.480;2023-05-29T05:54:18;17.95;;;8.88;;
63688;SDS011;54895;40.928;14.480;2023-05-29T05:56:44;12.93;;;8.23;;
63688;SDS011;54895;40.928;14.480;2023-05-29T05:59:14;23.67;;;15.52;;
63688;SDS011;54895;40.928;14.480;2023-05-29T06:01:41;50.10;;;33.22;;
63688;SDS011;54895;40.928;14.480;2023-05-29T06:04:08;17.08;;;11.30;;
63688;SDS011;54895;40.928;14.480;2023-05-29T06:06:35;14.88;;;7.25;;
63688;SDS011;54895;40.928;14.480;2023-05-29T06:09:01;26.83;;;16.92;;
63688;SDS011;54895;40.928;14.480;2023-05-29T06:11:30;37.03;;;22.77;;
63688;SDS011;54895;40.928;14.480;2023-05-29T06:13:58;32.80;;;22.38;;
63688;SDS011;54895;40.928;14.480;2023-05-29T06:16:29;38.03;;;23.40;;
63688;SDS011;54895;40.928;14.480;2023-05-29T06:18:56;47.38;;;28.38;;
63688;SDS011;54895;40.928;14.480;2023-05-29T06:21:24;47.70;;;29.05;;
63688;SDS011;54895;40.928;14.480;2023-05-29T06:23:55;31.58;;;18.42;;
63688;SDS011;54895;40.928;14.480;2023-05-29T06:26:22;22.48;;;14.52;;
63688;SDS011;54895;40.928;14.480;2023-05-29T06:28:49;25.13;;;16.30;;
63688;SDS011;54895;40.928;14.480;2023-05-29T06:31:16;29.38;;;17.30;;
63688;SDS011;54895;40.928;14.480;2023-05-29T06:33:44;29.42;;;16.50;;
63688;SDS011;54895;40.928;14.480;2023-05-29T06:36:10;22.40;;;15.15;;
63688;SDS011;54895;40.928;14.480;2023-05-29T06:38:37;24.55;;;16.00;;
63688;SDS011;54895;40.928;14.480;2023-05-29T06:41:06;24.17;;;15.43;;
63688;SDS011;54895;40.928;14.480;2023-05-29T06:43:34;28.00;;;16.00;;
63688;SDS011;54895;40.928;14.480;2023-05-29T06:46:03;22.67;;;15.02;;
63688;SDS011;54895;40.928;14.480;2023-05-29T06:48:36;22.05;;;13.50;;
63688;SDS011;54895;40.928;14.480;2023-05-29T06:51:03;19.95;;;12.88;;
63688;SDS011;54895;40.928;14.480;2023-05-29T06:53:41;19.65;;;13.35;;
63688;SDS011;54895;40.928;14.480;2023-05-29T06:56:09;20.77;;;11.40;;
63688;SDS011;54895;40.928;14.480;2023-05-29T06:58:36;16.85;;;11.70;;
63688;SDS011;54895;40.928;14.480;2023-05-29T07:01:02;15.65;;;10.20;;
63688;SDS011;54895;40.928;14.480;2023-05-29T07:03:51;14.27;;;9.15;;
63688;SDS011;54895;40.928;14.480;2023-05-29T07:06:18;10.73;;;8.38;;
63688;SDS011;54895;40.928;14.480;2023-05-29T07:08:45;13.25;;;8.98;;
63688;SDS011;54895;40.928;14.480;2023-05-29T07:11:12;12.13;;;8.00;;
63688;SDS011;54895;40.928;14.480;2023-05-29T07:13:39;10.05;;;6.30;;
63688;SDS011;54895;40.928;14.480;2023-05-29T07:16:06;12.07;;;7.03;;
63688;SDS011;54895;40.928;14.480;2023-05-29T07:18:34;9.05;;;5.68;;
63688;SDS011;54895;40.928;14.480;2023-05-29T07:21:01;8.57;;;6.22;;
63688;SDS011;54895;40.928;14.480;2023-05-29T07:23:29;8.90;;;6.32;;
63688;SDS011;54895;40.928;14.480;2023-05-29T07:25:56;9.73;;;6.30;;
63688;SDS011;54895;40.928;14.480;2023-05-29T07:28:25;10.50;;;6.45;;
63688;SDS011;54895;40.928;14.480;2023-05-29T07:30:52;12.68;;;7.10;;
63688;SDS011;54895;40.928;14.480;2023-05-29T07:33:19;9.52;;;6.93;;
63688;SDS011;54895;40.928;14.480;2023-05-29T07:35:46;10.40;;;6.95;;
63688;SDS011;54895;40.928;14.480;2023-05-29T07:38:12;11.05;;;6.00;;
63688;SDS011;54895;40.928;14.480;2023-05-29T07:40:40;8.05;;;5.70;;
63688;SDS011;54895;40.928;14.480;2023-05-29T07:43:24;13.68;;;6.43;;
63688;SDS011;54895;40.928;14.480;2023-05-29T07:45:58;9.68;;;6.68;;
63688;SDS011;54895;40.928;14.480;2023-05-29T07:48:24;14.43;;;6.90;;
63688;SDS011;54895;40.928;14.480;2023-05-29T07:50:52;10.40;;;7.20;;
63688;SDS011;54895;40.928;14.480;2023-05-29T07:53:18;13.35;;;7.15;;
63688;SDS011;54895;40.928;14.480;2023-05-29T07:55:47;10.98;;;6.93;;
63688;SDS011;54895;40.928;14.480;2023-05-29T07:58:13;9.35;;;6.32;;
63688;SDS011;54895;40.928;14.480;2023-05-29T08:00:43;10.07;;;5.70;;
63688;SDS011;54895;40.928;14.480;2023-05-29T08:03:12;8.77;;;5.07;;
63688;SDS011;54895;40.928;14.480;2023-05-29T08:05:57;7.68;;;5.57;;
63688;SDS011;54895;40.928;14.480;2023-05-29T08:08:25;8.82;;;5.30;;
63688;SDS011;54895;40.928;14.480;2023-05-29T08:10:52;6.82;;;5.20;;
63688;SDS011;54895;40.928;14.480;2023-05-29T08:13:19;7.30;;;5.40;;
63688;SDS011;54895;40.928;14.480;2023-05-29T08:15:47;7.97;;;5.30;;
63688;SDS011;54895;40.928;14.480;2023-05-29T08:18:14;5.22;;;4.45;;
63688;SDS011;54895;40.928;14.480;2023-05-29T08:20:40;6.05;;;4.47;;
63688;SDS011;54895;40.928;14.480;2023-05-29T08:23:08;6.60;;;4.40;;
63688;SDS011;54895;40.928;14.480;2023-05-29T08:25:35;6.15;;;4.20;;
63688;SDS011;54895;40.928;14.480;2023-05-29T08:28:02;7.63;;;4.22;;
63688;SDS011;54895;40.928;14.480;2023-05-29T08:30:28;8.23;;;4.78;;
63688;SDS011;54895;40.928;14.480;2023-05-29T08:32:55;6.93;;;5.30;;
63688;SDS011;54895;40.928;14.480;2023-05-29T08:35:21;6.68;;;4.72;;
63688;SDS011;54895;40.928;14.480;2023-05-29T08:37:48;7.10;;;4.55;;
63688;SDS011;54895;40.928;14.480;2023-05-29T08:40:16;8.10;;;4.70;;
63688;SDS011;54895;40.928;14.480;2023-05-29T08:42:45;8.20;;;4.80;;
63688;SDS011;54895;40.928;14.480;2023-05-29T08:45:14;5.13;;;4.18;;
63688;SDS011;54895;40.928;14.480;2023-05-29T08:47:41;6.18;;;4.50;;
63688;SDS011;54895;40.928;14.480;2023-05-29T08:50:08;7.07;;;5.35;;
63688;SDS011;54895;40.928;14.480;2023-05-29T08:52:36;8.20;;;4.85;;
63688;SDS011;54895;40.928;14.480;2023-05-29T08:55:04;8.75;;;4.80;;
63688;SDS011;54895;40.928;14.480;2023-05-29T08:57:31;8.10;;;4.50;;
63688;SDS011;54895;40.928;14.480;2023-05-29T08:59:59;8.57;;;4.50;;
63688;SDS011;54895;40.928;14.480;2023-05-29T09:02:27;5.80;;;4.07;;
63688;SDS011;54895;40.928;14.480;2023-05-29T09:04:54;5.55;;;4.22;;
63688;SDS011;54895;40.928;14.480;2023-05-29T09:07:23;6.07;;;3.78;;
63688;SDS011;54895;40.928;14.480;2023-05-29T09:09:51;7.32;;;4.38;;
63688;SDS011;54895;40.928;14.480;2023-05-29T09:12:18;5.03;;;3.95;;
63688;SDS011;54895;40.928;14.480;2023-05-29T09:14:45;7.65;;;3.80;;
63688;SDS011;54895;40.928;14.480;2023-05-29T09:17:12;4.97;;;3.75;;
63688;SDS011;54895;40.928;14.480;2023-05-29T09:19:39;4.43;;;3.50;;
63688;SDS011;54895;40.928;14.480;2023-05-29T09:22:08;5.90;;;4.00;;
63688;SDS011;54895;40.928;14.480;2023-05-29T09:24:36;6.13;;;3.90;;
63688;SDS011;54895;40.928;14.480;2023-05-29T09:27:05;8.02;;;3.90;;
63688;SDS011;54895;40.928;14.480;2023-05-29T09:29:43;6.47;;;4.00;;
63688;SDS011;54895;40.928;14.480;2023-05-29T09:32:31;8.55;;;3.72;;
63688;SDS011;54895;40.928;14.480;2023-05-29T09:34:59;5.80;;;3.47;;
63688;SDS011;54895;40.928;14.480;2023-05-29T09:37:27;6.57;;;3.22;;
63688;SDS011;54895;40.928;14.480;2023-05-29T09:39:54;7.75;;;3.72;;
63688;SDS011;54895;40.928;14.480;2023-05-29T09:42:20;5.90;;;3.70;;
63688;SDS011;54895;40.928;14.480;2023-05-29T09:44:50;7.40;;;3.88;;
63688;SDS011;54895;40.928;14.480;2023-05-29T09:47:19;4.78;;;3.30;;
63688;SDS011;54895;40.928;14.480;2023-05-29T09:49:47;5.00;;;2.90;;
63688;SDS011;54895;40.928;14.480;2023-05-29T09:52:14;5.18;;;3.17;;
63688;SDS011;54895;40.928;14.480;2023-05-29T09:54:42;5.13;;;3.80;;
63688;SDS011;54895;40.928;14.480;2023-05-29T09:57:12;3.97;;;2.92;;
63688;SDS011;54895;40.928;14.480;2023-05-29T09:59:45;3.30;;;3.00;;
63688;SDS011;54895;40.928;14.480;2023-05-29T10:02:17;5.13;;;3.17;;
63688;SDS011;54895;40.928;14.480;2023-05-29T10:04:44;6.65;;;3.75;;
63688;SDS011;54895;40.928;14.480;2023-05-29T10:09:46;4.57;;;2.80;;
63688;SDS011;54895;40.928;14.480;2023-05-29T10:12:17;4.05;;;3.22;;
63688;SDS011;54895;40.928;14.480;2023-05-29T10:14:47;3.60;;;3.10;;
63688;SDS011;54895;40.928;14.480;2023-05-29T10:17:16;4.47;;;3.30;;
63688;SDS011;54895;40.928;14.480;2023-05-29T10:19:48;5.07;;;3.28;;
63688;SDS011;54895;40.928;14.480;2023-05-29T10:22:17;4.40;;;3.17;;
63688;SDS011;54895;40.928;14.480;2023-05-29T10:24:51;3.83;;;3.00;;
63688;SDS011;54895;40.928;14.480;2023-05-29T10:27:18;5.60;;;3.10;;
63688;SDS011;54895;40.928;14.480;2023-05-29T10:29:50;4.20;;;2.80;;
63688;SDS011;54895;40.928;14.480;2023-05-29T10:35:38;5.13;;;2.92;;
63688;SDS011;54895;40.928;14.480;2023-05-29T10:38:12;7.47;;;3.00;;
63688;SDS011;54895;40.928;14.480;2023-05-29T10:40:44;5.25;;;3.10;;
63688;SDS011;54895;40.928;14.480;2023-05-29T10:43:29;4.30;;;2.80;;
63688;SDS011;54895;40.928;14.480;2023-05-29T10:46:02;7.65;;;4.80;;
63688;SDS011;54895;40.928;14.480;2023-05-29T10:48:36;6.93;;;4.57;;
63688;SDS011;54895;40.928;14.480;2023-05-29T10:51:05;8.30;;;4.88;;
63688;SDS011;54895;40.928;14.480;2023-05-29T10:53:35;8.80;;;5.00;;
63688;SDS011;54895;40.928;14.480;2023-05-29T10:56:07;8.77;;;4.90;;
63688;SDS011;54895;40.928;14.480;2023-05-29T10:58:37;7.95;;;4.63;;
63688;SDS011;54895;40.928;14.480;2023-05-29T11:01:03;7.10;;;4.38;;
63688;SDS011;54895;40.928;14.480;2023-05-29T11:03:30;10.15;;;4.30;;
63688;SDS011;54895;40.928;14.480;2023-05-29T11:06:05;7.68;;;4.35;;
63688;SDS011;54895;40.928;14.480;2023-05-29T11:08:43;8.18;;;4.60;;
63688;SDS011;54895;40.928;14.480;2023-05-29T11:11:12;8.80;;;4.22;;
63688;SDS011;54895;40.928;14.480;2023-05-29T11:13:40;5.85;;;4.43;;
63688;SDS011;54895;40.928;14.480;2023-05-29T11:16:19;8.73;;;4.05;;
63688;SDS011;54895;40.928;14.480;2023-05-29T11:18:47;7.40;;;4.55;;
63688;SDS011;54895;40.928;14.480;2023-05-29T11:24:04;6.45;;;3.65;;
63688;SDS011;54895;40.928;14.480;2023-05-29T11:26:32;6.22;;;4.07;;
63688;SDS011;54895;40.928;14.480;2023-05-29T11:29:01;5.65;;;3.97;;
63688;SDS011;54895;40.928;14.480;2023-05-29T11:31:36;5.00;;;4.00;;
63688;SDS011;54895;40.928;14.480;2023-05-29T11:34:04;4.90;;;3.80;;
63688;SDS011;54895;40.928;14.480;2023-05-29T11:36:36;8.27;;;4.00;;
63688;SDS011;54895;40.928;14.480;2023-05-29T11:39:04;8.75;;;4.30;;
63688;SDS011;54895;40.928;14.480;2023-05-29T11:41:31;9.50;;;3.70;;
63688;SDS011;54895;40.928;14.480;2023-05-29T11:44:02;5.57;;;3.67;;
63688;SDS011;54895;40.928;14.480;2023-05-29T11:46:31;5.78;;;3.50;;
63688;SDS011;54895;40.928;14.480;2023-05-29T11:48:59;7.07;;;4.07;;
63688;SDS011;54895;40.928;14.480;2023-05-29T11:51:26;6.20;;;4.50;;
63688;SDS011;54895;40.928;14.480;2023-05-29T11:53:53;5.25;;;3.95;;
63688;SDS011;54895;40.928;14.480;2023-05-29T11:56:25;6.82;;;4.28;;
63688;SDS011;54895;40.928;14.480;2023-05-29T11:58:52;5.35;;;4.13;;
63688;SDS011;54895;40.928;14.480;2023-05-29T12:01:23;9.50;;;4.57;;
63688;SDS011;54895;40.928;14.480;2023-05-29T12:03:51;11.48;;;4.53;;
63688;SDS011;54895;40.928;14.480;2023-05-29T12:06:31;7.50;;;4.80;;
63688;SDS011;54895;40.928;14.480;2023-05-29T12:08:59;8.52;;;4.78;;
63688;SDS011;54895;40.928;14.480;2023-05-29T12:11:26;7.78;;;4.00;;
63688;SDS011;54895;40.928;14.480;2023-05-29T12:13:59;6.90;;;4.47;;
63688;SDS011;54895;40.928;14.480;2023-05-29T12:16:27;11.48;;;4.97;;
63688;SDS011;54895;40.928;14.480;2023-05-29T12:18:56;6.72;;;4.05;;
63688;SDS011;54895;40.928;14.480;2023-05-29T12:21:23;7.18;;;4.97;;
63688;SDS011;54895;40.928;14.480;2023-05-29T12:23:52;6.88;;;4.45;;
63688;SDS011;54895;40.928;14.480;2023-05-29T12:26:23;6.63;;;4.97;;
63688;SDS011;54895;40.928;14.480;2023-05-29T12:28:52;6.18;;;4.38;;
63688;SDS011;54895;40.928;14.480;2023-05-29T12:31:28;7.82;;;5.30;;
63688;SDS011;54895;40.928;14.480;2023-05-29T12:34:01;9.23;;;5.47;;
63688;SDS011;54895;40.928;14.480;2023-05-29T12:36:33;7.85;;;4.70;;
63688;SDS011;54895;40.928;14.480;2023-05-29T12:39:04;8.32;;;5.10;;
63688;SDS011;54895;40.928;14.480;2023-05-29T12:41:35;7.22;;;4.50;;
63688;SDS011;54895;40.928;14.480;2023-05-29T12:44:03;6.85;;;5.47;;
63688;SDS011;54895;40.928;14.480;2023-05-29T12:46:40;11.52;;;5.25;;
63688;SDS011;54895;40.928;14.480;2023-05-29T12:49:15;8.55;;;4.95;;
63688;SDS011;54895;40.928;14.480;2023-05-29T12:51:43;18.20;;;5.40;;
63688;SDS011;54895;40.928;14.480;2023-05-29T12:54:14;5.57;;;4.60;;
63688;SDS011;54895;40.928;14.480;2023-05-29T12:56:42;5.75;;;4.80;;
63688;SDS011;54895;40.928;14.480;2023-05-29T12:59:09;6.78;;;4.60;;
63688;SDS011;54895;40.928;14.480;2023-05-29T13:01:37;7.28;;;4.35;;
63688;SDS011;54895;40.928;14.480;2023-05-29T13:04:06;8.15;;;4.97;;
63688;SDS011;54895;40.928;14.480;2023-05-29T13:06:37;6.75;;;4.90;;
63688;SDS011;54895;40.928;14.480;2023-05-29T13:09:04;8.10;;;4.75;;
63688;SDS011;54895;40.928;14.480;2023-05-29T13:11:34;7.88;;;5.43;;
63688;SDS011;54895;40.928;14.480;2023-05-29T13:14:01;6.88;;;4.95;;
63688;SDS011;54895;40.928;14.480;2023-05-29T13:16:28;5.45;;;4.50;;
63688;SDS011;54895;40.928;14.480;2023-05-29T13:18:55;8.88;;;4.00;;
63688;SDS011;54895;40.928;14.480;2023-05-29T13:21:21;7.70;;;4.38;;
63688;SDS011;54895;40.928;14.480;2023-05-29T13:23:48;6.68;;;4.97;;
63688;SDS011;54895;40.928;14.480;2023-05-29T13:26:16;6.63;;;4.35;;
63688;SDS011;54895;40.928;14.480;2023-05-29T13:28:43;5.55;;;4.55;;
63688;SDS011;54895;40.928;14.480;2023-05-29T13:31:10;5.60;;;4.72;;
63688;SDS011;54895;40.928;14.480;2023-05-29T13:33:37;7.03;;;4.88;;
63688;SDS011;54895;40.928;14.480;2023-05-29T13:36:06;6.20;;;4.72;;
63688;SDS011;54895;40.928;14.480;2023-05-29T13:38:33;6.00;;;5.40;;
63688;SDS011;54895;40.928;14.480;2023-05-29T13:41:00;6.72;;;5.05;;
63688;SDS011;54895;40.928;14.480;2023-05-29T13:43:27;3.92;;;2.20;;
63688;SDS011;54895;40.928;14.480;2023-05-29T13:45:54;15.05;;;3.97;;
63688;SDS011;54895;40.928;14.480;2023-05-29T13:48:20;5.43;;;2.00;;
63688;SDS011;54895;40.928;14.480;2023-05-29T13:50:48;4.18;;;1.90;;
63688;SDS011;54895;40.928;14.480;2023-05-29T13:53:15;5.88;;;3.13;;
63688;SDS011;54895;40.928;14.480;2023-05-29T13:55:42;4.32;;;2.63;;
63688;SDS011;54895;40.928;14.480;2023-05-29T13:58:09;6.32;;;2.20;;
63688;SDS011;54895;40.928;14.480;2023-05-29T14:00:36;5.07;;;1.77;;
63688;SDS011;54895;40.928;14.480;2023-05-29T14:03:02;9.20;;;3.10;;
63688;SDS011;54895;40.928;14.480;2023-05-29T14:05:30;5.57;;;1.88;;
63688;SDS011;54895;40.928;14.480;2023-05-29T14:07:56;5.95;;;2.60;;
63688;SDS011;54895;40.928;14.480;2023-05-29T14:10:23;3.97;;;1.92;;
63688;SDS011;54895;40.928;14.480;2023-05-29T14:12:51;4.97;;;1.77;;
63688;SDS011;54895;40.928;14.480;2023-05-29T14:15:17;2.90;;;1.90;;
63688;SDS011;54895;40.928;14.480;2023-05-29T14:17:45;4.72;;;2.20;;
63688;SDS011;54895;40.928;14.480;2023-05-29T14:20:12;8.45;;;3.80;;
63688;SDS011;54895;40.928;14.480;2023-05-29T14:22:39;14.05;;;3.83;;
63688;SDS011;54895;40.928;14.480;2023-05-29T14:25:06;9.35;;;3.63;;
63688;SDS011;54895;40.928;14.480;2023-05-29T14:27:34;8.50;;;4.50;;
63688;SDS011;54895;40.928;14.480;2023-05-29T14:30:01;10.02;;;4.90;;
63688;SDS011;54895;40.928;14.480;2023-05-29T14:32:30;10.25;;;4.88;;
63688;SDS011;54895;40.928;14.480;2023-05-29T14:34:58;9.70;;;5.13;;
63688;SDS011;54895;40.928;14.480;2023-05-29T14:37:27;12.63;;;5.57;;
63688;SDS011;54895;40.928;14.480;2023-05-29T14:39:55;8.02;;;4.55;;
63688;SDS011;54895;40.928;14.480;2023-05-29T14:42:22;8.27;;;4.78;;
63688;SDS011;54895;40.928;14.480;2023-05-29T14:44:49;8.50;;;4.85;;
63688;SDS011;54895;40.928;14.480;2023-05-29T14:47:16;9.55;;;4.90;;
63688;SDS011;54895;40.928;14.480;2023-05-29T14:49:44;9.13;;;4.70;;
63688;SDS011;54895;40.928;14.480;2023-05-29T14:52:12;7.90;;;4.75;;
63688;SDS011;54895;40.928;14.480;2023-05-29T14:54:39;9.63;;;4.95;;
63688;SDS011;54895;40.928;14.480;2023-05-29T14:57:06;9.30;;;5.40;;
63688;SDS011;54895;40.928;14.480;2023-05-29T14:59:33;9.38;;;4.90;;
63688;SDS011;54895;40.928;14.480;2023-05-29T15:02:00;9.80;;;5.10;;
63688;SDS011;54895;40.928;14.480;2023-05-29T15:04:28;8.93;;;4.72;;
63688;SDS011;54895;40.928;14.480;2023-05-29T15:06:55;10.07;;;4.75;;
63688;SDS011;54895;40.928;14.480;2023-05-29T15:09:23;7.43;;;4.60;;
63688;SDS011;54895;40.928;14.480;2023-05-29T15:11:51;8.68;;;4.82;;